Mexican Cut, RMBL, Colorado Weather observations

Data are for 10 minute period ending at time listed.
 Day   Time   Solar   Ave.   Ave.  Ave.  Vector  Max.   Baro.   Total    
  of    of     Rad.   Air    Rel.  Wind   Wind   Wind  Press.  Precip.   
Year   Day            Temp.  Hum.  Speed  Dir.   Gust                    
2015   (MST)  Kw/m2    F      %     mph   deg.    mph    mb.     in.     
-------------------------------------------------------------------------
 187   17:30   0.11   54.6    56    1.5   345     3.0   680.1    0.00 
 187   17:40   0.09   53.6    59    0.2    33     1.5   680.3    0.00 
 187   17:50   0.07   53.0    64    1.3   115     5.6   680.3    0.00 
 187   18:00   0.07   51.8    71    2.8   155     5.5   680.4    0.00 
 187   18:10   0.20   51.7    74    2.0   143     5.6   680.4    0.00 
 187   18:20   0.19   53.0    71    3.5   136     8.0   680.4    0.00 
 187   18:30   0.06   52.7    71    4.4   141     8.1   680.5    0.00 
 187   18:40   0.03   51.3    75    2.9   148     6.1   680.6    0.00 
 187   18:50   0.02   50.6    77    1.5   128     3.7   680.7    0.00 
 187   19:00   0.01   50.7    76    1.6   148     6.4   680.7    0.00 
 187   19:10   0.00   50.5    72    3.3   180     6.8   680.7    0.00 
 187   19:20   0.00   49.7    73    5.3   176    10.4   680.8    0.01 
 187   19:30   0.00   46.7    78    7.2   171    11.4   680.9    0.00 
 187   19:40   0.00   44.1    84    5.3   173     9.4   680.9    0.00 
 187   19:50   0.00   42.9    87    5.4   174     8.7   680.8    0.00 
 187   20:00   0.00   43.5    83    5.2   176     9.2   680.7    0.00 
 187   20:10   0.00   43.7    83    4.8   170    10.7   680.7    0.00 
 187   20:20   0.00   44.1    80    3.9   167     7.9   680.7    0.00 
 187   20:30   0.00   43.6    84    2.5   143     4.2   680.7    0.00 
 187   20:40   0.00   42.4    88    1.3   183     2.3   680.8    0.00 
 187   20:50   0.00   41.8    89    1.1   218     1.9   680.8    0.00 
 187   21:00   0.00   41.4    91    1.1   208     1.7   680.8    0.00 
 187   21:10   0.00   41.1    92    0.9   239     1.5   680.8    0.00 
 187   21:20   0.00   41.0    92    0.8   226     1.5   680.6    0.00 
 187   21:30   0.00   40.9    92    1.1   219     2.3   680.7    0.00 
 187   21:40   0.00   41.3    91    1.4   220     2.8   680.8    0.00 
 187   21:50   0.00   41.7    90    1.0   224     1.6   680.7    0.00 
 187   22:00   0.00   42.1    88    1.4   225     2.2   680.6    0.00 
 187   22:10   0.00   42.2    89    1.4   223     2.1   680.7    0.00 
 187   22:20   0.00   42.0    91    1.6   210     2.5   680.6    0.00 
 187   22:30   0.00   42.0    93    1.2   218     2.0   680.5    0.00 
 187   22:40   0.00   41.8    93    1.7   209     2.0   680.5    0.00 
 187   22:50   0.00   42.0    94    1.3   198     1.8   680.6    0.00 
 187   23:00   0.00   42.7    94    1.2   214     1.8   680.5    0.00 
 187   23:10   0.00   43.2    92    1.4   209     2.0   680.5    0.00 
 187   23:20   0.00   43.8    92    2.1   212     2.6   680.4    0.00 
 187   23:30   0.00   44.1    92    1.8   204     2.4   680.3    0.00 
 187   23:40   0.00   44.1    92    0.8   216     1.3   680.3    0.00 
 187   23:50   0.00   44.2    92    0.9   209     1.8   680.1    0.00 
 188    0:00   0.00   44.1    92    0.7   219     2.1   680.1    0.00 
 188    0:10   0.00   44.1    92    1.3   211     5.0   680.3    0.00 
 188    0:20   0.00   44.7    89    0.8   224     1.8   680.2    0.00 
 188    0:30   0.00   44.5    89    0.9   158     2.5   680.2    0.00 
 188    0:40   0.00   44.8    86    1.5   167     3.8   680.3    0.00 
 188    0:50   0.00   44.7    84    2.4   156     5.4   680.2    0.00 
 188    1:00   0.00   44.8    82    4.0   161     6.2   680.1    0.00 
 188    1:10   0.00   45.3    80    3.4   145     6.2   680.0    0.00 
 188    1:20   0.00   44.7    82    3.8   154     6.4   679.9    0.00 
 188    1:30   100.00  99999.0   99999  99999.0   99999   99999.0   99999.0   99999.00 
 188    1:40   100.00  99999.0   99999  99999.0   99999   99999.0   99999.0   99999.00 
 188    1:50   100.00  99999.0   99999  99999.0   99999   99999.0   99999.0   99999.00 
 188    2:00   100.00  99999.0   99999  99999.0   99999   99999.0   99999.0   99999.00 
 188    2:10   100.00  99999.0   99999  99999.0   99999   99999.0   99999.0   99999.00 
 188    2:20   100.00  99999.0   99999  99999.0   99999   99999.0   99999.0   99999.00 
 188    2:30   0.00   44.9    88    5.4   164    10.2   679.8    0.00 
 188    2:40   0.00   45.2    86    5.2   156     9.3   679.6    0.00 
 188    2:50   0.00   45.1    86    4.8   157     8.7   679.5    0.00 
 188    3:00   0.00   44.9    87    3.1   150     5.7   679.4    0.00 
 188    3:10   0.00   44.7    88    4.1   176     8.8   679.5    0.00 
 188    3:20   100.00  99999.0   99999  99999.0   99999   99999.0   99999.0   99999.00 
 188    3:30   0.00   44.7    87    5.2   179     8.6   679.3    0.00 
 188    3:40   0.00   44.6    88    6.2   148    10.4   679.3    0.00 
 188    3:50   0.00   44.3    88    4.5   144    11.0   679.3    0.00 
 188    4:00   0.00   44.3    88    4.1   141     8.6   679.3    0.00 
 188    4:10   0.00   43.9    90    3.8   127     7.6   679.5    0.00 
 188    4:20   0.00   43.3    92    3.8   136     6.8   679.3    0.00 
 188    4:30   0.00   43.1    92    3.8   134     7.3   679.3    0.00 
 188    4:40   0.00   43.4    91    3.7   145     7.7   679.3    0.00 
 188    4:50   0.00   43.9    90    3.7   146     7.7   679.4    0.00 
 188    5:00   0.00   44.1    89    4.4   152     9.3   679.3    0.00 
 188    5:10   0.01   44.3    88    4.7   148     8.9   679.4    0.00 
 188    5:20   0.02   44.3    88    4.7   147     9.8   679.4    0.00 
 188    5:30   0.02   44.4    88    4.4   150     9.7   679.4    0.00 
 188    5:40   0.04   44.4    88    6.2   156    11.6   679.4    0.00 
 188    5:50   0.04   44.8    86    6.8   157    10.7   679.5    0.00 
 188    6:00   0.07   45.0    86    6.0   156    10.3   679.6    0.00 
 188    6:10   0.13   45.2    86    6.2   160    11.0   679.7    0.00 
 188    6:20   0.16   45.5    87    5.4   159    10.7   679.6    0.00 
 188    6:30   0.16   45.6    87    5.8   163    10.6   679.6    0.00 
 188    6:40   0.20   46.0    86    4.9   154    11.3   679.7    0.00 
 188    6:50   0.28   47.4    83    4.7   156     9.3   679.7    0.00 
 188    7:00   0.39   48.4    80    3.5   140     9.7   679.7    0.00 
 188    7:10   0.51   48.5    81    5.2   123    11.5   679.8    0.00 
 188    7:20   0.54   48.6    81    5.1   135     9.5   679.8    0.00 
 188    7:30   0.49   49.0    79    4.8   130     9.9   679.8    0.00 
 188    7:40   0.30   48.1    84    3.3   120     6.7   679.9    0.00 
 188    7:50   0.27   47.3    85    3.2   133     6.4   679.9    0.00 
 188    8:00   0.25   47.7    84    3.3   147     7.6   679.9    0.00 
 188    8:10   0.28   47.3    86    2.9   115     6.0   679.9    0.00 
 188    8:20   0.21   46.7    87    2.7   130     5.8   679.9    0.00 
 188    8:30   0.37   46.5    90    3.3    98     7.1   679.8    0.00 
 188    8:40   0.37   46.7    91    3.2   114    11.0   679.8    0.00 
 188    8:50   0.45   47.5    88    3.2   118     7.6   679.8    0.00 
 188    9:00   0.23   46.9    86    4.4   106     9.5   679.7    0.00 
 188    9:10   0.07   45.8    89    4.3   134     7.4   679.8    0.00 
 188    9:20   0.05   43.9    88    3.5   177     8.3   679.7    0.07 
 188    9:30   0.12   42.9    92    2.7   159     7.0   679.6    0.00 
 188    9:40   0.15   43.5    92    3.4   137     6.0   679.5    0.00 
 188    9:50   0.18   44.0    93    2.1   109     5.6   679.5    0.00 
 188   10:00   0.32   44.7    95    1.3   347     3.7   679.5    0.00 
 188   10:10   0.27   46.1    89    1.2    51     4.7   679.4    0.00 
 188   10:20   0.27   46.5    91    2.4   354     5.1   679.5    0.00 
 188   10:30   0.53   46.8    88    2.2   344     4.5   679.5    0.00 
 188   10:40   0.60   48.0    86    2.6   331     6.0   679.5    0.00 
 188   10:50   0.29   47.1    87    2.9   326     5.9   679.6    0.00 
 188   11:00   0.43   47.1    89    2.8   333     6.2   679.5    0.00 
 188   11:10   1.02   48.5    87    2.2   349     6.4   679.5    0.00 
 188   11:20   0.61   49.4    83    3.1   351     8.0   679.4    0.00 
 188   11:30   0.32   48.0    85    3.0   330     6.6   679.3    0.00 
 188   11:40   0.39   48.3    87    3.5   345     7.7   679.2    0.00 
 188   11:50   0.54   48.1    87    3.6   348     9.6   679.0    0.00 
 188   12:00   0.54   48.9    86    1.9    27     7.5   679.0    0.00 
 188   12:10   0.24   49.0    84    3.3   342     8.5   678.9    0.00 
 188   12:20   0.27   48.5    78    4.7   278    16.4   678.8    0.00 
 188   12:30   0.34   49.6    69    3.8   162    13.5   678.9    0.00 
 188   12:40   0.24   49.4    67    6.1   180    14.1   679.0    0.00 
 188   12:50   0.20   48.8    69    5.5   203    16.9   679.0    0.00 
 188   13:00   0.42   49.0    71    5.1   188    12.7   678.8    0.00 
 188   13:10   0.46   49.4    74    3.4   100    12.5   678.8    0.00 
 188   13:20   0.22   49.4    68    2.5   164     8.5   678.8    0.00 
 188   13:30   0.20   49.1    70    3.0   110    12.6   678.7    0.00 
 188   13:40   0.07   47.2    81    5.4   146    14.0   678.9    0.00 
 188   13:50   0.10   44.3    88    5.8   158    11.9   678.8    0.00 
 188   14:00   0.23   44.9    88    5.1   148    10.6   678.8    0.00 
 188   14:10   0.39   46.0    89    3.1   141     5.8   678.7    0.00 
 188   14:20   0.68   47.3    87    3.9   120     6.5   678.5    0.00 
 188   14:30   0.38   47.6    87    1.6    95     4.7   678.4    0.00 
 188   14:40   0.34   47.5    87    1.5    66     4.7   678.4    0.00 
 188   14:50   0.54   48.0    84    1.6   105     4.0   678.4    0.00 
 188   15:00   0.75   49.8    75    1.6   102     5.0   678.3    0.00 
 188   15:10   0.46   49.3    73    1.3    49     4.5   678.3    0.00 
 188   15:20   0.35   49.7    72    0.9    65     3.2   678.2    0.00 
 188   15:30   0.28   49.7    73    1.1    34     3.6   678.1    0.00 
 188   15:40   0.38   49.5    73    2.0    12     4.7   678.0    0.00 
 188   15:50   0.24   49.7    73    1.9   353     4.6   677.9    0.00 
 188   16:00   0.21   49.2    76    1.8   334     4.0   677.9    0.00 
 188   16:10   0.34   49.4    77    2.3   329     4.5   677.8    0.00 
 188   16:20   0.29   49.7    78    2.5   345     6.1   677.7    0.00 
 188   16:30   0.43   49.8    76    2.3   338     5.2   677.8    0.00 
 188   16:40   0.67   50.8    74    2.5   351     6.1   677.8    0.00 
 188   16:50   0.33   51.7    71    1.6     2     5.6   677.7    0.00 
 188   17:00   0.11   50.5    72    1.6   354     3.9   677.6    0.00 
 188   17:10   0.05   49.3    74    1.3   312     2.7   677.5    0.00 
 188   17:20   0.02   48.6    80    2.0   105     5.8   677.4    0.00 

Return to Mexican Cut, RMBL, Colorado graphs page.


Western Regional Climate Center,wrcc@dri.edu